sensor_id;sensor_type;location;lat;lon;timestamp;temperature;humidity
43772;HTU21D;59066;54.782;32.024;2023-03-23T00:01:20;3.73;74.67
43772;HTU21D;59066;54.782;32.024;2023-03-23T00:03:52;3.72;74.91
43772;HTU21D;59066;54.782;32.024;2023-03-23T00:06:20;3.68;74.93
43772;HTU21D;59066;54.782;32.024;2023-03-23T00:08:50;3.69;74.94
43772;HTU21D;59066;54.782;32.024;2023-03-23T00:11:26;3.68;74.89
43772;HTU21D;59066;54.782;32.024;2023-03-23T00:13:57;3.68;75.18
43772;HTU21D;59066;54.782;32.024;2023-03-23T00:16:32;3.64;75.26
43772;HTU21D;59066;54.782;32.024;2023-03-23T00:19:06;3.68;75.19
43772;HTU21D;59066;54.782;32.024;2023-03-23T00:21:36;3.69;75.18
43772;HTU21D;59066;54.782;32.024;2023-03-23T00:24:06;3.69;75.19
43772;HTU21D;59066;54.782;32.024;2023-03-23T00:26:36;3.71;75.25
43772;HTU21D;59066;54.782;32.024;2023-03-23T00:29:16;3.75;75.11
43772;HTU21D;59066;54.782;32.024;2023-03-23T00:31:49;3.73;75.22
43772;HTU21D;59066;54.782;32.024;2023-03-23T00:34:19;3.71;75.18
43772;HTU21D;59066;54.782;32.024;2023-03-23T00:36:49;3.71;75.21
43772;HTU21D;59066;54.782;32.024;2023-03-23T00:39:17;3.69;75.33
43772;HTU21D;59066;54.782;32.024;2023-03-23T00:41:47;3.71;75.31
43772;HTU21D;59066;54.782;32.024;2023-03-23T00:44:14;3.71;75.42
43772;HTU21D;59066;54.782;32.024;2023-03-23T00:46:45;3.71;75.31
43772;HTU21D;59066;54.782;32.024;2023-03-23T00:49:15;3.71;75.44
43772;HTU21D;59066;54.782;32.024;2023-03-23T00:51:43;3.69;75.56
43772;HTU21D;59066;54.782;32.024;2023-03-23T00:54:11;3.69;75.59
43772;HTU21D;59066;54.782;32.024;2023-03-23T00:56:39;3.68;75.57
43772;HTU21D;59066;54.782;32.024;2023-03-23T00:59:07;3.65;75.59
43772;HTU21D;59066;54.782;32.024;2023-03-23T01:01:35;3.63;75.86
43772;HTU21D;59066;54.782;32.024;2023-03-23T01:04:04;3.63;76.00
43772;HTU21D;59066;54.782;32.024;2023-03-23T01:06:34;3.62;76.14
43772;HTU21D;59066;54.782;32.024;2023-03-23T01:09:02;3.60;76.10
43772;HTU21D;59066;54.782;32.024;2023-03-23T01:11:30;3.58;76.24
43772;HTU21D;59066;54.782;32.024;2023-03-23T01:13:58;3.61;76.23
43772;HTU21D;59066;54.782;32.024;2023-03-23T01:16:26;3.60;76.42
43772;HTU21D;59066;54.782;32.024;2023-03-23T01:18:54;3.61;76.22
43772;HTU21D;59066;54.782;32.024;2023-03-23T01:21:23;3.56;76.55
43772;HTU21D;59066;54.782;32.024;2023-03-23T01:23:52;3.59;76.50
43772;HTU21D;59066;54.782;32.024;2023-03-23T01:26:22;3.61;76.61
43772;HTU21D;59066;54.782;32.024;2023-03-23T01:28:51;3.67;76.73
43772;HTU21D;59066;54.782;32.024;2023-03-23T01:31:21;3.67;76.57
43772;HTU21D;59066;54.782;32.024;2023-03-23T01:33:49;3.72;76.51
43772;HTU21D;59066;54.782;32.024;2023-03-23T01:36:27;3.74;76.37
43772;HTU21D;59066;54.782;32.024;2023-03-23T01:39:00;3.77;76.26
43772;HTU21D;59066;54.782;32.024;2023-03-23T01:41:31;3.78;76.00
43772;HTU21D;59066;54.782;32.024;2023-03-23T01:46:54;3.83;75.80
43772;HTU21D;59066;54.782;32.024;2023-03-23T01:49:25;3.78;75.99
43772;HTU21D;59066;54.782;32.024;2023-03-23T01:52:42;3.79;76.06
43772;HTU21D;59066;54.782;32.024;2023-03-23T01:54:47;3.79;75.83
43772;HTU21D;59066;54.782;32.024;2023-03-23T01:57:17;3.77;76.18
43772;HTU21D;59066;54.782;32.024;2023-03-23T01:59:50;3.77;76.12
43772;HTU21D;59066;54.782;32.024;2023-03-23T02:02:23;3.77;76.10
43772;HTU21D;59066;54.782;32.024;2023-03-23T02:04:55;3.73;76.34
43772;HTU21D;59066;54.782;32.024;2023-03-23T02:07:25;3.70;76.40
43772;HTU21D;59066;54.782;32.024;2023-03-23T02:09:56;3.73;76.53
43772;HTU21D;59066;54.782;32.024;2023-03-23T02:12:23;3.74;76.55
43772;HTU21D;59066;54.782;32.024;2023-03-23T02:14:52;3.75;76.61
43772;HTU21D;59066;54.782;32.024;2023-03-23T02:20:34;3.78;76.79
43772;HTU21D;59066;54.782;32.024;2023-03-23T02:23:27;3.82;76.53
43772;HTU21D;59066;54.782;32.024;2023-03-23T02:26:16;3.82;76.68
43772;HTU21D;59066;54.782;32.024;2023-03-23T02:32:32;3.85;76.70
43772;HTU21D;59066;54.782;32.024;2023-03-23T02:34:56;3.87;76.63
43772;HTU21D;59066;54.782;32.024;2023-03-23T02:37:31;3.88;76.73
43772;HTU21D;59066;54.782;32.024;2023-03-23T02:40:06;3.90;76.90
43772;HTU21D;59066;54.782;32.024;2023-03-23T02:42:45;3.92;76.84
43772;HTU21D;59066;54.782;32.024;2023-03-23T02:45:16;4.01;77.02
43772;HTU21D;59066;54.782;32.024;2023-03-23T02:47:45;4.15;76.81
43772;HTU21D;59066;54.782;32.024;2023-03-23T02:50:16;4.20;76.36
43772;HTU21D;59066;54.782;32.024;2023-03-23T02:52:44;4.29;76.12
43772;HTU21D;59066;54.782;32.024;2023-03-23T02:55:13;4.30;76.02
43772;HTU21D;59066;54.782;32.024;2023-03-23T02:57:42;4.33;75.88
43772;HTU21D;59066;54.782;32.024;2023-03-23T03:00:15;4.33;75.73
43772;HTU21D;59066;54.782;32.024;2023-03-23T03:02:45;4.31;75.79
43772;HTU21D;59066;54.782;32.024;2023-03-23T03:05:30;4.33;75.79
43772;HTU21D;59066;54.782;32.024;2023-03-23T03:08:24;4.35;75.99
43772;HTU21D;59066;54.782;32.024;2023-03-23T03:11:07;4.39;75.88
43772;HTU21D;59066;54.782;32.024;2023-03-23T03:13:54;4.45;75.93
43772;HTU21D;59066;54.782;32.024;2023-03-23T03:16:36;4.50;75.76
43772;HTU21D;59066;54.782;32.024;2023-03-23T03:19:35;4.54;75.53
43772;HTU21D;59066;54.782;32.024;2023-03-23T03:22:04;4.49;75.41
43772;HTU21D;59066;54.782;32.024;2023-03-23T03:24:38;4.46;75.63
43772;HTU21D;59066;54.782;32.024;2023-03-23T03:27:11;4.49;75.81
43772;HTU21D;59066;54.782;32.024;2023-03-23T03:29:47;4.48;75.85
43772;HTU21D;59066;54.782;32.024;2023-03-23T03:32:22;4.56;75.81
43772;HTU21D;59066;54.782;32.024;2023-03-23T03:34:52;4.56;75.68
43772;HTU21D;59066;54.782;32.024;2023-03-23T03:37:20;4.56;75.67
43772;HTU21D;59066;54.782;32.024;2023-03-23T03:39:49;4.56;75.63
43772;HTU21D;59066;54.782;32.024;2023-03-23T03:42:18;4.51;75.72
43772;HTU21D;59066;54.782;32.024;2023-03-23T03:44:46;4.49;75.96
43772;HTU21D;59066;54.782;32.024;2023-03-23T03:47:14;4.50;75.86
43772;HTU21D;59066;54.782;32.024;2023-03-23T03:49:41;4.47;76.01
43772;HTU21D;59066;54.782;32.024;2023-03-23T03:52:09;4.48;76.03
43772;HTU21D;59066;54.782;32.024;2023-03-23T03:54:41;4.48;75.91
43772;HTU21D;59066;54.782;32.024;2023-03-23T03:57:08;4.46;76.03
43772;HTU21D;59066;54.782;32.024;2023-03-23T03:59:55;4.50;76.18
43772;HTU21D;59066;54.782;32.024;2023-03-23T04:02:43;4.50;75.89
43772;HTU21D;59066;54.782;32.024;2023-03-23T04:05:16;4.53;76.04
43772;HTU21D;59066;54.782;32.024;2023-03-23T04:07:45;4.59;75.93
43772;HTU21D;59066;54.782;32.024;2023-03-23T04:10:17;4.65;75.85
43772;HTU21D;59066;54.782;32.024;2023-03-23T04:12:59;4.71;75.70
43772;HTU21D;59066;54.782;32.024;2023-03-23T04:15:30;4.72;75.41
43772;HTU21D;59066;54.782;32.024;2023-03-23T04:17:58;4.78;75.37
43772;HTU21D;59066;54.782;32.024;2023-03-23T04:20:35;4.77;75.08
43772;HTU21D;59066;54.782;32.024;2023-03-23T04:23:12;4.76;75.27
43772;HTU21D;59066;54.782;32.024;2023-03-23T04:25:40;4.84;75.23
43772;HTU21D;59066;54.782;32.024;2023-03-23T04:28:09;4.88;75.25
43772;HTU21D;59066;54.782;32.024;2023-03-23T04:30:46;4.94;74.95
43772;HTU21D;59066;54.782;32.024;2023-03-23T04:33:16;5.01;74.80
43772;HTU21D;59066;54.782;32.024;2023-03-23T04:35:46;5.07;74.54
43772;HTU21D;59066;54.782;32.024;2023-03-23T04:38:24;5.13;74.23
43772;HTU21D;59066;54.782;32.024;2023-03-23T04:40:58;5.18;74.05
43772;HTU21D;59066;54.782;32.024;2023-03-23T04:43:48;5.22;73.95
43772;HTU21D;59066;54.782;32.024;2023-03-23T04:46:38;5.22;73.73
43772;HTU21D;59066;54.782;32.024;2023-03-23T04:49:09;5.26;73.71
43772;HTU21D;59066;54.782;32.024;2023-03-23T04:51:39;5.23;73.51
43772;HTU21D;59066;54.782;32.024;2023-03-23T04:54:18;5.24;73.53
43772;HTU21D;59066;54.782;32.024;2023-03-23T04:56:51;5.28;73.58
43772;HTU21D;59066;54.782;32.024;2023-03-23T04:59:18;5.28;73.62
43772;HTU21D;59066;54.782;32.024;2023-03-23T05:02:03;5.32;73.49
43772;HTU21D;59066;54.782;32.024;2023-03-23T05:04:42;5.31;73.44
43772;HTU21D;59066;54.782;32.024;2023-03-23T05:07:14;5.31;73.37
43772;HTU21D;59066;54.782;32.024;2023-03-23T05:09:47;5.30;73.46
43772;HTU21D;59066;54.782;32.024;2023-03-23T05:12:20;5.37;73.64
43772;HTU21D;59066;54.782;32.024;2023-03-23T05:14:55;5.43;73.50
43772;HTU21D;59066;54.782;32.024;2023-03-23T05:17:26;5.45;73.12
43772;HTU21D;59066;54.782;32.024;2023-03-23T05:19:56;5.48;73.16
43772;HTU21D;59066;54.782;32.024;2023-03-23T05:22:42;5.46;72.99
43772;HTU21D;59066;54.782;32.024;2023-03-23T05:25:13;5.39;72.96
43772;HTU21D;59066;54.782;32.024;2023-03-23T05:27:45;5.43;73.19
43772;HTU21D;59066;54.782;32.024;2023-03-23T05:30:21;5.47;73.19
43772;HTU21D;59066;54.782;32.024;2023-03-23T05:32:49;5.54;73.08
43772;HTU21D;59066;54.782;32.024;2023-03-23T05:35:49;5.60;73.05
43772;HTU21D;59066;54.782;32.024;2023-03-23T05:38:23;5.66;72.79
43772;HTU21D;59066;54.782;32.024;2023-03-23T05:40:52;5.69;72.71
43772;HTU21D;59066;54.782;32.024;2023-03-23T05:43:26;5.79;72.63
43772;HTU21D;59066;54.782;32.024;2023-03-23T05:46:10;5.83;72.32
43772;HTU21D;59066;54.782;32.024;2023-03-23T05:48:38;5.92;72.28
43772;HTU21D;59066;54.782;32.024;2023-03-23T05:51:11;5.94;71.94
43772;HTU21D;59066;54.782;32.024;2023-03-23T05:53:42;6.04;71.84
43772;HTU21D;59066;54.782;32.024;2023-03-23T05:56:12;6.06;71.52
43772;HTU21D;59066;54.782;32.024;2023-03-23T05:58:59;6.16;71.43
43772;HTU21D;59066;54.782;32.024;2023-03-23T06:01:28;6.24;71.35
43772;HTU21D;59066;54.782;32.024;2023-03-23T06:03:55;6.25;70.82
43772;HTU21D;59066;54.782;32.024;2023-03-23T06:06:36;6.27;70.82
43772;HTU21D;59066;54.782;32.024;2023-03-23T06:09:07;6.35;70.64
43772;HTU21D;59066;54.782;32.024;2023-03-23T06:11:54;6.30;70.47
43772;HTU21D;59066;54.782;32.024;2023-03-23T06:14:36;6.36;70.09
43772;HTU21D;59066;54.782;32.024;2023-03-23T06:17:05;6.35;70.16
43772;HTU21D;59066;54.782;32.024;2023-03-23T06:19:33;6.48;70.32
43772;HTU21D;59066;54.782;32.024;2023-03-23T06:22:07;6.49;69.71
43772;HTU21D;59066;54.782;32.024;2023-03-23T06:25:12;6.59;69.57
43772;HTU21D;59066;54.782;32.024;2023-03-23T06:27:42;6.67;69.49
43772;HTU21D;59066;54.782;32.024;2023-03-23T06:30:12;6.86;69.56
43772;HTU21D;59066;54.782;32.024;2023-03-23T06:32:42;6.91;69.06
43772;HTU21D;59066;54.782;32.024;2023-03-23T06:35:14;6.97;68.68
43772;HTU21D;59066;54.782;32.024;2023-03-23T06:38:14;6.97;68.68
43772;HTU21D;59066;54.782;32.024;2023-03-23T06:40:52;7.05;68.74
43772;HTU21D;59066;54.782;32.024;2023-03-23T06:43:20;7.11;68.44
43772;HTU21D;59066;54.782;32.024;2023-03-23T06:45:59;7.22;68.62
43772;HTU21D;59066;54.782;32.024;2023-03-23T06:48:36;7.29;68.08
43772;HTU21D;59066;54.782;32.024;2023-03-23T06:51:05;7.37;68.10
43772;HTU21D;59066;54.782;32.024;2023-03-23T06:53:35;7.39;68.02
43772;HTU21D;59066;54.782;32.024;2023-03-23T06:56:05;7.46;67.83
43772;HTU21D;59066;54.782;32.024;2023-03-23T06:58:33;7.48;67.27
43772;HTU21D;59066;54.782;32.024;2023-03-23T07:01:02;7.52;67.40
43772;HTU21D;59066;54.782;32.024;2023-03-23T07:03:35;7.65;67.00
43772;HTU21D;59066;54.782;32.024;2023-03-23T07:06:04;7.76;67.11
43772;HTU21D;59066;54.782;32.024;2023-03-23T07:08:37;7.88;66.14
43772;HTU21D;59066;54.782;32.024;2023-03-23T07:11:09;7.83;66.33
43772;HTU21D;59066;54.782;32.024;2023-03-23T07:13:39;7.91;66.31
43772;HTU21D;59066;54.782;32.024;2023-03-23T07:16:08;8.05;66.13
43772;HTU21D;59066;54.782;32.024;2023-03-23T07:18:35;8.18;65.77
43772;HTU21D;59066;54.782;32.024;2023-03-23T07:21:04;8.27;65.52
43772;HTU21D;59066;54.782;32.024;2023-03-23T07:23:33;8.39;65.28
43772;HTU21D;59066;54.782;32.024;2023-03-23T07:26:06;8.37;64.92
43772;HTU21D;59066;54.782;32.024;2023-03-23T07:28:40;8.39;64.74
43772;HTU21D;59066;54.782;32.024;2023-03-23T07:31:34;8.44;64.94
43772;HTU21D;59066;54.782;32.024;2023-03-23T07:34:03;8.47;64.71
43772;HTU21D;59066;54.782;32.024;2023-03-23T07:36:41;8.55;64.47
43772;HTU21D;59066;54.782;32.024;2023-03-23T07:39:09;8.53;64.34
43772;HTU21D;59066;54.782;32.024;2023-03-23T07:41:37;8.49;64.18
43772;HTU21D;59066;54.782;32.024;2023-03-23T07:44:14;8.46;64.13
43772;HTU21D;59066;54.782;32.024;2023-03-23T07:46:43;8.51;64.52
43772;HTU21D;59066;54.782;32.024;2023-03-23T07:49:15;8.62;64.47
43772;HTU21D;59066;54.782;32.024;2023-03-23T07:51:50;8.70;63.97
43772;HTU21D;59066;54.782;32.024;2023-03-23T07:54:18;8.76;63.59
43772;HTU21D;59066;54.782;32.024;2023-03-23T07:56:54;8.81;63.79
43772;HTU21D;59066;54.782;32.024;2023-03-23T07:59:27;8.90;63.66
43772;HTU21D;59066;54.782;32.024;2023-03-23T08:01:57;8.96;63.56
43772;HTU21D;59066;54.782;32.024;2023-03-23T08:04:48;9.10;63.11
43772;HTU21D;59066;54.782;32.024;2023-03-23T08:07:42;9.25;63.29
43772;HTU21D;59066;54.782;32.024;2023-03-23T08:10:18;9.34;62.97
43772;HTU21D;59066;54.782;32.024;2023-03-23T08:13:04;9.39;63.09
43772;HTU21D;59066;54.782;32.024;2023-03-23T08:16:02;9.40;62.77
43772;HTU21D;59066;54.782;32.024;2023-03-23T08:18:49;9.49;62.56
43772;HTU21D;59066;54.782;32.024;2023-03-23T08:21:46;9.67;62.93
43772;HTU21D;59066;54.782;32.024;2023-03-23T08:24:46;9.89;62.75
43772;HTU21D;59066;54.782;32.024;2023-03-23T08:27:23;10.11;62.21
43772;HTU21D;59066;54.782;32.024;2023-03-23T08:30:13;10.29;61.71
43772;HTU21D;59066;54.782;32.024;2023-03-23T08:33:04;10.38;61.26
43772;HTU21D;59066;54.782;32.024;2023-03-23T08:35:57;10.41;60.54
43772;HTU21D;59066;54.782;32.024;2023-03-23T08:38:38;10.43;60.35
43772;HTU21D;59066;54.782;32.024;2023-03-23T08:41:20;10.40;60.83
43772;HTU21D;59066;54.782;32.024;2023-03-23T08:43:50;10.45;60.70
43772;HTU21D;59066;54.782;32.024;2023-03-23T08:46:37;10.45;60.26
43772;HTU21D;59066;54.782;32.024;2023-03-23T08:49:06;10.52;60.58
43772;HTU21D;59066;54.782;32.024;2023-03-23T08:51:52;10.65;60.17
43772;HTU21D;59066;54.782;32.024;2023-03-23T08:54:38;10.68;59.83
43772;HTU21D;59066;54.782;32.024;2023-03-23T08:57:38;10.74;59.80
43772;HTU21D;59066;54.782;32.024;2023-03-23T09:00:18;10.83;59.14
43772;HTU21D;59066;54.782;32.024;2023-03-23T09:03:05;10.83;58.87
43772;HTU21D;59066;54.782;32.024;2023-03-23T09:05:52;10.73;58.99
43772;HTU21D;59066;54.782;32.024;2023-03-23T09:08:26;10.69;59.15
43772;HTU21D;59066;54.782;32.024;2023-03-23T09:10:59;10.72;59.48
43772;HTU21D;59066;54.782;32.024;2023-03-23T09:13:27;10.77;59.28
43772;HTU21D;59066;54.782;32.024;2023-03-23T09:15:54;10.87;59.38
43772;HTU21D;59066;54.782;32.024;2023-03-23T09:18:23;10.82;59.06
43772;HTU21D;59066;54.782;32.024;2023-03-23T09:20:53;10.86;59.27
43772;HTU21D;59066;54.782;32.024;2023-03-23T09:23:21;10.92;58.65
43772;HTU21D;59066;54.782;32.024;2023-03-23T09:25:49;11.00;59.25
43772;HTU21D;59066;54.782;32.024;2023-03-23T09:28:18;11.31;59.06
43772;HTU21D;59066;54.782;32.024;2023-03-23T09:30:46;11.60;58.06
43772;HTU21D;59066;54.782;32.024;2023-03-23T09:33:19;11.73;57.28
43772;HTU21D;59066;54.782;32.024;2023-03-23T09:35:46;11.92;57.63
43772;HTU21D;59066;54.782;32.024;2023-03-23T09:38:14;11.99;57.05
43772;HTU21D;59066;54.782;32.024;2023-03-23T09:40:56;12.14;56.97
43772;HTU21D;59066;54.782;32.024;2023-03-23T09:48:48;12.35;55.38
43772;HTU21D;59066;54.782;32.024;2023-03-23T09:51:39;12.40;54.78
43772;HTU21D;59066;54.782;32.024;2023-03-23T09:56:42;12.45;54.61
43772;HTU21D;59066;54.782;32.024;2023-03-23T10:01:49;12.44;55.33
43772;HTU21D;59066;54.782;32.024;2023-03-23T10:04:34;12.58;55.10
43772;HTU21D;59066;54.782;32.024;2023-03-23T10:07:23;12.66;55.05
43772;HTU21D;59066;54.782;32.024;2023-03-23T10:09:54;12.66;54.65
43772;HTU21D;59066;54.782;32.024;2023-03-23T10:12:47;12.71;54.34
43772;HTU21D;59066;54.782;32.024;2023-03-23T10:15:27;12.70;54.84
43772;HTU21D;59066;54.782;32.024;2023-03-23T10:20:53;12.63;54.81
43772;HTU21D;59066;54.782;32.024;2023-03-23T10:23:51;12.43;54.46
43772;HTU21D;59066;54.782;32.024;2023-03-23T10:29:08;12.22;54.68
43772;HTU21D;59066;54.782;32.024;2023-03-23T10:32:11;12.14;54.98
43772;HTU21D;59066;54.782;32.024;2023-03-23T10:37:27;12.22;55.87
43772;HTU21D;59066;54.782;32.024;2023-03-23T10:39:57;12.33;55.33
43772;HTU21D;59066;54.782;32.024;2023-03-23T10:42:31;12.22;55.58
43772;HTU21D;59066;54.782;32.024;2023-03-23T10:47:43;12.06;56.00
43772;HTU21D;59066;54.782;32.024;2023-03-23T10:50:18;12.07;56.00
43772;HTU21D;59066;54.782;32.024;2023-03-23T10:52:50;12.11;56.21
43772;HTU21D;59066;54.782;32.024;2023-03-23T10:55:21;12.18;56.04
43772;HTU21D;59066;54.782;32.024;2023-03-23T10:58:06;12.25;55.36
43772;HTU21D;59066;54.782;32.024;2023-03-23T11:00:43;12.25;55.49
43772;HTU21D;59066;54.782;32.024;2023-03-23T11:05:47;12.45;55.65
43772;HTU21D;59066;54.782;32.024;2023-03-23T11:08:24;12.56;55.46
43772;HTU21D;59066;54.782;32.024;2023-03-23T11:10:55;12.70;55.10
43772;HTU21D;59066;54.782;32.024;2023-03-23T11:13:31;12.64;54.57
43772;HTU21D;59066;54.782;32.024;2023-03-23T11:15:59;12.51;54.66
43772;HTU21D;59066;54.782;32.024;2023-03-23T11:18:39;12.40;54.90
43772;HTU21D;59066;54.782;32.024;2023-03-23T11:21:08;12.31;54.97
43772;HTU21D;59066;54.782;32.024;2023-03-23T11:23:42;12.31;55.10
43772;HTU21D;59066;54.782;32.024;2023-03-23T11:26:21;12.46;54.85
43772;HTU21D;59066;54.782;32.024;2023-03-23T11:31:31;12.71;54.54
43772;HTU21D;59066;54.782;32.024;2023-03-23T11:34:09;13.11;54.23
43772;HTU21D;59066;54.782;32.024;2023-03-23T11:36:41;13.75;52.46
43772;HTU21D;59066;54.782;32.024;2023-03-23T11:39:34;14.12;51.14
43772;HTU21D;59066;54.782;32.024;2023-03-23T11:42:13;14.08;50.85
43772;HTU21D;59066;54.782;32.024;2023-03-23T11:44:45;14.10;51.11
43772;HTU21D;59066;54.782;32.024;2023-03-23T11:47:30;14.10;50.85
43772;HTU21D;59066;54.782;32.024;2023-03-23T11:50:16;14.20;50.22
43772;HTU21D;59066;54.782;32.024;2023-03-23T11:53:00;14.10;50.50
43772;HTU21D;59066;54.782;32.024;2023-03-23T11:58:12;14.10;50.02
43772;HTU21D;59066;54.782;32.024;2023-03-23T12:01:03;13.98;50.08
43772;HTU21D;59066;54.782;32.024;2023-03-23T12:06:40;13.68;50.00
43772;HTU21D;59066;54.782;32.024;2023-03-23T12:09:42;13.34;50.72
43772;HTU21D;59066;54.782;32.024;2023-03-23T12:12:23;13.23;51.14
43772;HTU21D;59066;54.782;32.024;2023-03-23T12:21:03;12.81;52.24
43772;HTU21D;59066;54.782;32.024;2023-03-23T12:29:12;12.50;53.16
43772;HTU21D;59066;54.782;32.024;2023-03-23T12:40:21;12.07;54.68
43772;HTU21D;59066;54.782;32.024;2023-03-23T12:43:13;12.11;54.51
43772;HTU21D;59066;54.782;32.024;2023-03-23T12:48:42;12.11;55.07
43772;HTU21D;59066;54.782;32.024;2023-03-23T12:51:32;12.07;54.90
43772;HTU21D;59066;54.782;32.024;2023-03-23T12:54:42;12.03;55.20
43772;HTU21D;59066;54.782;32.024;2023-03-23T13:02:45;11.94;55.93
43772;HTU21D;59066;54.782;32.024;2023-03-23T13:05:29;11.90;56.36
43772;HTU21D;59066;54.782;32.024;2023-03-23T13:08:20;11.85;56.57
43772;HTU21D;59066;54.782;32.024;2023-03-23T13:10:51;11.77;56.42
43772;HTU21D;59066;54.782;32.024;2023-03-23T13:13:40;11.73;56.83
43772;HTU21D;59066;54.782;32.024;2023-03-23T13:19:01;11.54;57.39
43772;HTU21D;59066;54.782;32.024;2023-03-23T13:21:32;11.52;57.39
43772;HTU21D;59066;54.782;32.024;2023-03-23T13:24:15;11.54;57.77
43772;HTU21D;59066;54.782;32.024;2023-03-23T13:26:44;11.49;57.87
43772;HTU21D;59066;54.782;32.024;2023-03-23T13:29:21;11.54;57.92
43772;HTU21D;59066;54.782;32.024;2023-03-23T13:31:51;11.47;58.16
43772;HTU21D;59066;54.782;32.024;2023-03-23T13:34:29;11.43;58.40
43772;HTU21D;59066;54.782;32.024;2023-03-23T13:37:00;11.38;58.83
43772;HTU21D;59066;54.782;32.024;2023-03-23T13:42:21;11.37;59.07
43772;HTU21D;59066;54.782;32.024;2023-03-23T13:50:01;11.42;59.16
43772;HTU21D;59066;54.782;32.024;2023-03-23T13:57:53;11.38;59.32
43772;HTU21D;59066;54.782;32.024;2023-03-23T14:10:41;11.72;58.88
43772;HTU21D;59066;54.782;32.024;2023-03-23T14:16:01;11.68;59.12
43772;HTU21D;59066;54.782;32.024;2023-03-23T14:18:38;11.67;58.94
43772;HTU21D;59066;54.782;32.024;2023-03-23T14:21:14;11.64;59.19
43772;HTU21D;59066;54.782;32.024;2023-03-23T14:23:42;11.58;59.13
43772;HTU21D;59066;54.782;32.024;2023-03-23T14:26:12;11.55;59.20
43772;HTU21D;59066;54.782;32.024;2023-03-23T14:28:44;11.47;59.49
43772;HTU21D;59066;54.782;32.024;2023-03-23T14:31:26;11.33;59.87
43772;HTU21D;59066;54.782;32.024;2023-03-23T14:33:56;11.28;60.22
43772;HTU21D;59066;54.782;32.024;2023-03-23T14:36:29;11.23;60.28
43772;HTU21D;59066;54.782;32.024;2023-03-23T14:41:46;11.18;60.66
43772;HTU21D;59066;54.782;32.024;2023-03-23T14:44:18;11.18;60.61
43772;HTU21D;59066;54.782;32.024;2023-03-23T14:46:49;11.08;60.88
43772;HTU21D;59066;54.782;32.024;2023-03-23T14:49:19;11.03;61.42
43772;HTU21D;59066;54.782;32.024;2023-03-23T14:51:51;10.99;61.39
43772;HTU21D;59066;54.782;32.024;2023-03-23T14:54:26;10.98;61.33
43772;HTU21D;59066;54.782;32.024;2023-03-23T14:56:55;10.99;61.74
43772;HTU21D;59066;54.782;32.024;2023-03-23T14:59:23;10.98;61.83
43772;HTU21D;59066;54.782;32.024;2023-03-23T15:01:51;10.94;61.99
43772;HTU21D;59066;54.782;32.024;2023-03-23T15:04:24;10.93;62.00
43772;HTU21D;59066;54.782;32.024;2023-03-23T15:07:00;10.93;62.18
43772;HTU21D;59066;54.782;32.024;2023-03-23T15:09:29;10.97;62.25
43772;HTU21D;59066;54.782;32.024;2023-03-23T15:12:04;10.94;62.30
43772;HTU21D;59066;54.782;32.024;2023-03-23T15:14:43;10.92;62.47
43772;HTU21D;59066;54.782;32.024;2023-03-23T15:17:24;10.92;62.51
43772;HTU21D;59066;54.782;32.024;2023-03-23T15:19:53;10.85;62.71
43772;HTU21D;59066;54.782;32.024;2023-03-23T15:22:29;10.83;62.83
43772;HTU21D;59066;54.782;32.024;2023-03-23T15:25:10;10.89;62.85
43772;HTU21D;59066;54.782;32.024;2023-03-23T15:27:49;10.93;62.63
43772;HTU21D;59066;54.782;32.024;2023-03-23T15:32:59;10.85;62.80
43772;HTU21D;59066;54.782;32.024;2023-03-23T15:35:33;10.74;63.19
43772;HTU21D;59066;54.782;32.024;2023-03-23T15:38:14;10.72;63.37
43772;HTU21D;59066;54.782;32.024;2023-03-23T15:40:47;10.70;63.43
43772;HTU21D;59066;54.782;32.024;2023-03-23T15:43:27;10.66;63.63
43772;HTU21D;59066;54.782;32.024;2023-03-23T15:48:50;10.56;63.86
43772;HTU21D;59066;54.782;32.024;2023-03-23T15:51:19;10.55;63.81
43772;HTU21D;59066;54.782;32.024;2023-03-23T15:53:48;10.48;63.98
43772;HTU21D;59066;54.782;32.024;2023-03-23T15:56:17;10.44;64.01
43772;HTU21D;59066;54.782;32.024;2023-03-23T15:58:45;10.42;64.11
43772;HTU21D;59066;54.782;32.024;2023-03-23T16:01:19;10.41;64.14
43772;HTU21D;59066;54.782;32.024;2023-03-23T16:03:53;10.38;64.33
43772;HTU21D;59066;54.782;32.024;2023-03-23T16:06:24;10.36;64.41
43772;HTU21D;59066;54.782;32.024;2023-03-23T16:08:53;10.30;64.52
43772;HTU21D;59066;54.782;32.024;2023-03-23T16:11:23;10.27;64.58
43772;HTU21D;59066;54.782;32.024;2023-03-23T16:13:51;10.24;64.84
43772;HTU21D;59066;54.782;32.024;2023-03-23T16:16:46;10.22;65.01
43772;HTU21D;59066;54.782;32.024;2023-03-23T16:19:17;10.16;65.03
43772;HTU21D;59066;54.782;32.024;2023-03-23T16:21:46;10.15;65.17
43772;HTU21D;59066;54.782;32.024;2023-03-23T16:24:14;10.11;65.25
43772;HTU21D;59066;54.782;32.024;2023-03-23T16:26:41;10.12;65.24
43772;HTU21D;59066;54.782;32.024;2023-03-23T16:29:14;10.11;65.39
43772;HTU21D;59066;54.782;32.024;2023-03-23T16:32:00;10.07;65.50
43772;HTU21D;59066;54.782;32.024;2023-03-23T16:34:27;10.05;65.64
43772;HTU21D;59066;54.782;32.024;2023-03-23T16:36:59;10.04;65.72
43772;HTU21D;59066;54.782;32.024;2023-03-23T16:39:27;10.01;65.69
43772;HTU21D;59066;54.782;32.024;2023-03-23T16:41:54;10.01;65.83
43772;HTU21D;59066;54.782;32.024;2023-03-23T16:44:22;9.96;66.05
43772;HTU21D;59066;54.782;32.024;2023-03-23T16:46:49;9.94;66.11
43772;HTU21D;59066;54.782;32.024;2023-03-23T16:49:17;9.90;66.35
43772;HTU21D;59066;54.782;32.024;2023-03-23T16:51:44;9.90;66.46
43772;HTU21D;59066;54.782;32.024;2023-03-23T16:54:13;9.85;66.65
43772;HTU21D;59066;54.782;32.024;2023-03-23T16:56:41;9.86;66.51
43772;HTU21D;59066;54.782;32.024;2023-03-23T16:59:13;9.86;66.60
43772;HTU21D;59066;54.782;32.024;2023-03-23T17:01:40;9.82;66.72
43772;HTU21D;59066;54.782;32.024;2023-03-23T17:04:09;9.78;67.01
43772;HTU21D;59066;54.782;32.024;2023-03-23T17:06:37;9.75;67.27
43772;HTU21D;59066;54.782;32.024;2023-03-23T17:09:04;9.72;67.51
43772;HTU21D;59066;54.782;32.024;2023-03-23T17:11:33;9.70;67.48
43772;HTU21D;59066;54.782;32.024;2023-03-23T17:14:01;9.67;67.83
43772;HTU21D;59066;54.782;32.024;2023-03-23T17:16:28;9.64;68.16
43772;HTU21D;59066;54.782;32.024;2023-03-23T17:18:56;9.66;67.99
43772;HTU21D;59066;54.782;32.024;2023-03-23T17:21:23;9.63;68.07
43772;HTU21D;59066;54.782;32.024;2023-03-23T17:23:51;9.61;68.33
43772;HTU21D;59066;54.782;32.024;2023-03-23T17:26:20;9.61;68.20
43772;HTU21D;59066;54.782;32.024;2023-03-23T17:28:47;9.55;68.45
43772;HTU21D;59066;54.782;32.024;2023-03-23T17:31:15;9.55;68.68
43772;HTU21D;59066;54.782;32.024;2023-03-23T17:33:43;9.51;68.81
43772;HTU21D;59066;54.782;32.024;2023-03-23T17:36:11;9.50;68.87
43772;HTU21D;59066;54.782;32.024;2023-03-23T17:38:38;9.47;69.10
43772;HTU21D;59066;54.782;32.024;2023-03-23T17:41:06;9.44;69.12
43772;HTU21D;59066;54.782;32.024;2023-03-23T17:43:34;9.44;69.43